Time;durP1;ratioP1;P1;durP2;ratioP2;P2;SDS_P1;SDS_P2;PMS_P1;PMS_P2;Temp;Humidity;BMP_temperature;BMP_pressure;BME280_temperature;BME280_humidity;BME280_pressure;Samples;Min_cycle;Max_cycle;Signal;HPM_P1;HPM_P2
2022/12/01 00:00:56;;;;;;;10.52;1.88;;;;;;;16.41;100.00;101014.56;2049978;28;20161;-79
2022/12/01 00:02:19;;;;;;;8.95;1.70;;;;;;;16.42;100.00;101013.66;2047908;28;20127;-77
2022/12/01 00:03:41;;;;;;;8.55;1.50;;;;;;;16.42;100.00;101013.66;2044252;29;20059;-76
2022/12/01 00:05:04;;;;;;;11.85;1.67;;;;;;;16.43;100.00;101003.91;2044828;29;20365;-76
2022/12/01 00:06:26;;;;;;;11.95;1.73;;;;;;;16.41;100.00;101003.91;2046016;28;20059;-76
2022/12/01 00:07:47;;;;;;;13.27;1.88;;;;;;;16.40;100.00;101007.50;2044454;29;20083;-76
2022/12/01 00:10:49;;;;;;;11.02;1.98;;;;;;;16.39;100.00;101011.03;2047090;29;20058;-77
2022/12/01 00:12:11;;;;;;;6.30;1.67;;;;;;;16.41;100.00;101009.22;2044776;29;20066;-77
2022/12/01 00:13:34;;;;;;;12.00;1.70;;;;;;;16.44;100.00;101008.34;2037229;29;20048;-78
2022/12/01 00:14:59;;;;;;;13.90;1.95;;;;;;;16.44;100.00;101013.69;2043225;29;20062;-77
2022/12/01 00:16:21;;;;;;;10.25;2.28;;;;;;;16.43;100.00;101011.91;2038103;29;20079;-76
2022/12/01 00:17:46;;;;;;;11.98;1.45;;;;;;;16.42;100.00;101016.34;2041842;29;20062;-77
2022/12/01 00:19:08;;;;;;;17.95;2.53;;;;;;;16.47;100.00;101014.56;2052157;28;20507;-77
2022/12/01 00:20:33;;;;;;;11.10;2.35;;;;;;;16.49;100.00;101006.53;2047911;28;20047;-78
2022/12/01 00:21:55;;;;;;;12.43;1.70;;;;;;;16.50;100.00;101003.88;2043188;29;20103;-76
2022/12/01 00:23:16;;;;;;;10.73;2.03;;;;;;;16.51;100.00;101000.31;2050816;28;20170;-77
2022/12/01 00:24:39;;;;;;;18.77;3.78;;;;;;;16.53;100.00;101005.66;2054920;28;20046;-76
2022/12/01 00:26:02;;;;;;;13.90;2.00;;;;;;;16.53;100.00;101003.88;2040492;29;20262;-77
2022/12/01 00:27:25;;;;;;;15.15;2.85;;;;;;;16.54;100.00;100997.63;2045188;28;20050;-77
2022/12/01 00:28:48;;;;;;;11.40;1.45;;;;;;;16.58;100.00;100996.72;2044731;29;20471;-76
2022/12/01 00:30:12;;;;;;;12.80;1.73;;;;;;;16.60;100.00;100995.00;2044835;29;20145;-77
2022/12/01 00:31:34;;;;;;;15.43;1.73;;;;;;;16.61;100.00;101001.19;2044890;29;20062;-77
2022/12/01 00:32:58;;;;;;;11.82;2.22;;;;;;;16.59;100.00;101006.50;2044289;29;20483;-77
2022/12/01 00:34:23;;;;;;;8.48;2.28;;;;;;;16.58;100.00;100999.41;2052250;28;20050;-77
2022/12/01 00:35:45;;;;;;;7.43;1.15;;;;;;;16.56;100.00;101003.84;2055696;28;20741;-76
2022/12/01 00:37:08;;;;;;;7.50;1.70;;;;;;;16.56;100.00;100995.84;2045285;29;20134;-76
2022/12/01 00:38:29;;;;;;;14.13;2.28;;;;;;;16.59;100.00;100998.50;2046770;29;20101;-77
2022/12/01 00:39:52;;;;;;;15.32;2.53;;;;;;;16.62;100.00;100997.63;2037150;29;20151;-77
2022/12/01 00:41:14;;;;;;;7.10;1.70;;;;;;;16.62;100.00;101001.19;2042585;29;20515;-77
2022/12/01 00:42:37;;;;;;;12.60;1.75;;;;;;;16.65;100.00;101002.94;2044522;29;20054;-77
2022/12/01 00:43:59;;;;;;;16.35;1.95;;;;;;;16.66;100.00;100996.72;2046564;29;20051;-77
2022/12/01 00:45:21;;;;;;;11.60;3.05;;;;;;;16.67;100.00;101004.69;2048967;28;20059;-77
2022/12/01 00:46:43;;;;;;;13.60;1.80;;;;;;;16.69;100.00;100994.03;2053371;28;20093;-77
2022/12/01 00:48:07;;;;;;;13.02;1.65;;;;;;;16.70;100.00;100995.81;2047375;28;20376;-76
2022/12/01 00:49:29;;;;;;;14.95;2.20;;;;;;;16.70;100.00;100979.81;2046611;29;20523;-77
2022/12/01 00:50:52;;;;;;;13.38;3.17;;;;;;;16.71;100.00;100979.81;2043472;29;20055;-77
2022/12/01 00:52:15;;;;;;;8.73;1.58;;;;;;;16.72;100.00;100978.91;2049019;29;20047;-77
2022/12/01 00:53:38;;;;;;;9.20;2.00;;;;;;;16.75;100.00;100967.34;2046420;29;20069;-77
2022/12/01 00:55:00;;;;;;;14.65;1.77;;;;;;;16.77;100.00;100967.31;2037837;29;20048;-77
2022/12/01 00:56:22;;;;;;;12.60;2.30;;;;;;;16.77;100.00;100957.56;2046467;29;20043;-77
2022/12/01 00:57:44;;;;;;;10.38;1.90;;;;;;;16.80;100.00;100954.00;2046329;29;20039;-77
2022/12/01 00:59:06;;;;;;;11.32;1.55;;;;;;;16.80;100.00;100930.88;2048065;28;20051;-76
2022/12/01 01:00:29;;;;;;;11.32;1.92;;;;;;;16.83;100.00;100948.63;2049082;29;20188;-76
2022/12/01 01:01:51;;;;;;;11.23;1.55;;;;;;;16.83;100.00;100940.63;2045275;29;20043;-76
2022/12/01 01:03:14;;;;;;;12.68;2.25;;;;;;;16.86;100.00;100951.28;2046425;29;20043;-76
2022/12/01 01:04:37;;;;;;;11.32;1.83;;;;;;;16.86;100.00;100949.50;2046490;29;20129;-77
2022/12/01 01:06:05;;;;;;;12.35;1.90;;;;;;;16.88;100.00;100947.69;2053710;28;20138;-77
2022/12/01 01:07:30;;;;;;;4.38;1.45;;;;;;;16.88;100.00;100963.69;2048799;28;20158;-77
2022/12/01 01:08:51;;;;;;;7.68;1.45;;;;;;;16.90;100.00;100951.25;2046059;28;20142;-77
2022/12/01 01:10:14;;;;;;;7.80;1.63;;;;;;;16.92;100.00;100952.13;2041068;29;20048;-77
2022/12/01 01:11:35;;;;;;;15.27;2.13;;;;;;;16.93;100.00;100950.34;2051069;28;20616;-76
2022/12/01 01:12:58;;;;;;;8.02;1.05;;;;;;;16.94;100.00;100958.31;2048924;28;20047;-76
2022/12/01 01:14:20;;;;;;;14.18;2.05;;;;;;;16.96;100.00;100968.97;2046358;29;20047;-77
2022/12/01 01:15:42;;;;;;;11.52;1.30;;;;;;;16.98;100.00;100978.75;2045811;29;20054;-76
2022/12/01 01:17:05;;;;;;;13.40;2.42;;;;;;;16.97;100.00;100986.75;2046350;29;20526;-74
2022/12/01 01:18:29;;;;;;;10.55;1.35;;;;;;;16.76;100.00;101013.53;2046316;29;20381;-75
2022/12/01 01:19:53;;;;;;;9.85;1.30;;;;;;;16.55;100.00;101034.03;2040013;29;20040;-75
2022/12/01 01:21:18;;;;;;;13.18;2.08;;;;;;;16.41;100.00;101027.03;2042323;29;20164;-75
2022/12/01 01:22:40;;;;;;;9.02;1.92;;;;;;;16.27;100.00;101024.41;2045995;28;20094;-75
2022/12/01 01:24:03;;;;;;;4.05;1.15;;;;;;;16.11;100.00;101039.53;2038395;29;20067;-75
2022/12/01 01:25:26;;;;;;;5.50;1.00;;;;;;;15.97;100.00;101046.69;2038884;29;20043;-75
2022/12/01 01:26:48;;;;;;;9.40;1.60;;;;;;;15.89;100.00;101054.66;2041375;29;20061;-76
2022/12/01 01:28:09;;;;;;;8.60;1.30;;;;;;;15.82;100.00;101052.91;2045371;29;20082;-76
2022/12/01 01:29:32;;;;;;;8.57;1.05;;;;;;;15.75;100.00;101059.13;2047803;29;20055;-76
2022/12/01 01:30:53;;;;;;;6.38;0.80;;;;;;;15.69;100.00;101064.44;2046354;29;20047;-76
2022/12/01 01:32:16;;;;;;;10.10;2.08;;;;;;;15.60;100.00;101075.13;2045771;28;20059;-76
2022/12/01 01:33:38;;;;;;;3.85;0.95;;;;;;;15.52;100.00;101082.16;2045390;29;20043;-75
2022/12/01 01:35:01;;;;;;;5.57;1.25;;;;;;;15.46;100.00;101082.16;2054175;28;20051;-75
2022/12/01 01:36:23;;;;;;;7.10;1.35;;;;;;;15.35;100.00;101094.56;2048466;28;20091;-74
2022/12/01 01:37:45;;;;;;;8.10;1.60;;;;;;;15.29;100.00;101105.22;2045773;28;20051;-75
2022/12/01 01:39:07;;;;;;;9.70;1.73;;;;;;;15.21;100.00;101101.66;2045715;29;20054;-75
2022/12/01 01:40:28;;;;;;;4.43;1.10;;;;;;;15.12;100.00;101107.81;2043390;29;20407;-75
2022/12/01 01:41:51;;;;;;;8.38;1.13;;;;;;;15.01;100.00;101083.88;2042743;29;20506;-73
2022/12/01 01:43:15;;;;;;;5.60;1.08;;;;;;;14.93;100.00;101056.38;2057223;28;20054;-73
2022/12/01 01:44:49;;;;;;;6.70;1.10;;;;;;;14.86;100.00;101064.31;2040794;29;20067;-74
2022/12/01 01:46:13;;;;;;;8.85;1.58;;;;;;;14.84;100.00;101042.16;2053891;28;20050;-74
2022/12/01 01:47:38;;;;;;;6.75;1.50;;;;;;;14.81;100.00;101034.19;2039933;29;20494;-75
2022/12/01 01:49:06;;;;;;;9.80;1.70;;;;;;;14.81;100.00;101023.56;2045580;29;20153;-75
2022/12/01 01:50:28;;;;;;;9.13;2.15;;;;;;;14.79;100.00;101028.84;2042318;29;20082;-75
2022/12/01 01:51:52;;;;;;;9.45;1.58;;;;;;;14.80;100.00;101027.97;2043529;28;20083;-75
2022/12/01 01:53:14;;;;;;;11.43;1.70;;;;;;;14.79;100.00;101018.22;2038406;29;20095;-75
2022/12/01 01:54:39;;;;;;;;;;;;;;;14.73;100.00;101028.84;2051609;28;20058;-75
2022/12/01 01:56:04;;;;;;;6.90;1.40;;;;;;;14.72;100.00;101035.94;2039933;29;19977;-75
2022/12/01 01:57:30;;;;;;;13.07;2.20;;;;;;;14.75;100.00;101043.03;2043409;28;20055;-76
2022/12/01 01:58:52;;;;;;;11.05;2.90;;;;;;;14.74;100.00;101038.59;2045898;29;20141;-76
2022/12/01 02:00:17;;;;;;;13.13;3.08;;;;;;;14.73;100.00;101039.47;2040522;29;20048;-76
2022/12/01 02:01:40;;;;;;;11.38;2.70;;;;;;;14.73;100.00;101055.41;2046161;29;20515;-76
2022/12/01 02:03:02;;;;;;;13.35;4.70;;;;;;;14.71;100.00;101055.41;2040749;29;20059;-77
2022/12/01 02:04:28;;;;;;;16.88;6.88;;;;;;;14.69;100.00;101065.16;2045847;29;20063;-76
2022/12/01 02:05:50;;;;;;;18.58;6.07;;;;;;;14.68;100.00;101057.19;2038477;29;20095;-77
2022/12/01 02:07:15;;;;;;;12.52;3.30;;;;;;;14.63;100.00;101051.88;2043334;29;20383;-76
2022/12/01 02:08:38;;;;;;;16.23;2.58;;;;;;;14.57;100.00;101040.31;2037874;29;20368;-77
2022/12/01 02:10:01;;;;;;;10.57;2.88;;;;;;;14.51;100.00;101037.63;2042345;29;20054;-77
2022/12/01 02:11:52;;;;;;;10.82;3.35;;;;;;;14.43;100.00;101028.75;2046940;28;20638;-77
2022/12/01 02:13:26;;;;;;;10.80;4.65;;;;;;;14.36;100.00;101026.03;2040140;29;20063;-80
2022/12/01 02:15:08;;;;;;;13.95;5.80;;;;;;;14.32;100.00;101026.88;2053611;28;20629;-79
2022/12/01 02:16:44;;;;;;;24.33;10.77;;;;;;;14.29;100.00;101028.66;2048463;29;20503;-79
2022/12/01 02:18:18;;;;;;;14.80;6.28;;;;;;;14.29;100.00;101023.34;2047641;29;20523;-79
2022/12/01 02:20:04;;;;;;;17.98;4.60;;;;;;;14.29;100.00;101016.25;2046796;29;20039;-79
2022/12/01 02:21:34;;;;;;;12.63;2.83;;;;;;;14.35;100.00;101013.63;2047653;28;20054;-80
2022/12/01 02:23:19;;;;;;;15.23;2.63;;;;;;;14.41;100.00;101003.94;2046738;29;20070;-79
2022/12/01 02:25:11;;;;;;;14.73;2.30;;;;;;;14.46;100.00;101007.50;2052579;28;20090;-79
2022/12/01 02:26:44;;;;;;;12.00;2.13;;;;;;;14.49;100.00;101024.34;2048354;29;20377;-78
2022/12/01 02:28:34;;;;;;;21.83;3.20;;;;;;;14.54;100.00;101025.25;2032730;29;20079;-75
2022/12/01 02:30:10;;;;;;;11.02;2.00;;;;;;;14.56;100.00;101004.00;2048091;29;20051;-76
2022/12/01 02:31:39;;;;;;;14.45;2.40;;;;;;;14.61;100.00;101010.22;2032494;29;20123;-76
2022/12/01 02:33:10;;;;;;;11.50;2.00;;;;;;;14.66;100.00;101005.78;2057132;28;20050;-77
2022/12/01 02:34:40;;;;;;;14.27;2.53;;;;;;;14.70;100.00;101018.22;2040441;29;20115;-76
2022/12/01 02:36:11;;;;;;;9.93;2.30;;;;;;;14.73;100.00;101018.22;2053900;28;20082;-76
2022/12/01 02:37:37;;;;;;;14.70;2.22;;;;;;;14.75;100.00;101024.44;2040139;29;20056;-76
2022/12/01 02:39:07;;;;;;;11.65;2.08;;;;;;;14.79;100.00;101022.66;2036597;29;20060;-77
2022/12/01 02:40:32;;;;;;;15.88;2.50;;;;;;;14.82;100.00;101006.72;2046424;29;20109;-76
2022/12/01 02:42:02;;;;;;;17.33;3.10;;;;;;;14.84;100.00;101047.47;2051630;28;20109;-76
2022/12/01 02:43:30;;;;;;;14.98;2.83;;;;;;;14.83;100.00;101009.41;2054677;28;20510;-75
2022/12/01 02:44:53;;;;;;;20.67;3.78;;;;;;;14.78;100.00;100989.88;2054492;28;20054;-75
2022/12/01 02:46:20;;;;;;;28.15;4.05;;;;;;;14.72;100.00;101000.50;2038478;29;20476;-75
2022/12/01 02:47:45;;;;;;;14.00;3.15;;;;;;;14.73;100.00;101011.13;2037714;29;20460;-74
2022/12/01 02:49:14;;;;;;;12.70;2.92;;;;;;;14.77;100.00;101009.34;2044800;29;20091;-75
2022/12/01 02:50:37;;;;;;;13.30;2.60;;;;;;;14.81;100.00;101021.78;2044986;29;20097;-75
2022/12/01 02:52:02;;;;;;;13.00;2.47;;;;;;;14.83;100.00;101032.44;2045173;29;20095;-75
2022/12/01 02:53:24;;;;;;;14.32;2.92;;;;;;;14.79;100.00;101028.84;2040037;29;20489;-76
2022/12/01 02:54:48;;;;;;;23.95;3.53;;;;;;;14.73;100.00;101023.53;2042782;29;20452;-76
2022/12/01 02:56:14;;;;;;;19.65;6.53;;;;;;;14.69;100.00;101029.72;2040862;29;20423;-77
2022/12/01 02:57:36;;;;;;;20.02;3.90;;;;;;;14.64;100.00;101035.00;2046115;28;20051;-77
2022/12/01 02:58:58;;;;;;;11.70;2.55;;;;;;;14.61;100.00;101042.09;2044770;29;20105;-75
2022/12/01 03:00:20;;;;;;;17.08;2.95;;;;;;;14.58;100.00;101036.75;2039777;29;20420;-75
2022/12/01 03:01:58;;;;;;;16.60;2.90;;;;;;;14.56;100.00;101035.88;2050099;28;20110;-75
2022/12/01 03:03:39;;;;;;;14.23;3.67;;;;;;;14.53;100.00;101033.22;2036461;29;20122;-77
2022/12/01 03:05:07;;;;;;;14.15;3.35;;;;;;;14.51;100.00;101049.13;2055218;28;20097;-78
2022/12/01 03:06:40;;;;;;;16.92;4.55;;;;;;;14.52;100.00;101050.03;2047377;28;20482;-78
2022/12/01 03:08:13;;;;;;;18.48;4.50;;;;;;;14.52;100.00;101050.03;2046462;29;20527;-79
2022/12/01 03:09:42;;;;;;;19.65;5.28;;;;;;;14.56;100.00;101063.34;2050905;28;20043;-79
2022/12/01 03:11:05;;;;;;;23.63;6.38;;;;;;;14.60;100.00;101072.19;2048014;29;20128;-80
2022/12/01 03:12:34;;;;;;;17.90;4.47;;;;;;;14.62;100.00;101071.34;2053550;28;20063;-78
2022/12/01 03:14:09;;;;;;;19.15;6.13;;;;;;;14.61;100.00;101071.31;2047168;29;20051;-79
2022/12/01 03:15:36;;;;;;;19.33;4.00;;;;;;;14.62;100.00;101075.75;2054394;28;20421;-80
2022/12/01 03:17:03;;;;;;;17.70;3.40;;;;;;;14.66;100.00;101066.91;2040284;29;20048;-80
2022/12/01 03:18:33;;;;;;;18.08;4.43;;;;;;;14.72;100.00;101085.53;2043841;29;20463;-80
2022/12/01 03:20:02;;;;;;;27.63;6.10;;;;;;;14.73;100.00;101066.94;2051377;28;20198;-81
2022/12/01 03:21:28;;;;;;;17.67;4.22;;;;;;;14.77;100.00;101063.41;2046888;29;20066;-79
2022/12/01 03:22:54;;;;;;;25.02;7.10;;;;;;;14.80;100.00;101059.00;2053990;28;20089;-80
2022/12/01 03:24:19;;;;;;;24.67;10.35;;;;;;;14.82;100.00;101066.09;2047433;28;20054;-80
2022/12/01 03:25:44;;;;;;;19.33;6.03;;;;;;;14.93;100.00;101074.09;2037771;29;20051;-80
2022/12/01 03:27:08;;;;;;;20.00;4.05;;;;;;;14.97;100.00;101076.75;2034517;29;20060;-80
2022/12/01 03:28:35;;;;;;;20.05;3.13;;;;;;;15.00;100.00;101066.13;2042816;29;20044;-80
2022/12/01 03:30:00;;;;;;;24.92;3.03;;;;;;;15.05;100.00;101067.03;2043680;29;20067;-79
2022/12/01 03:31:28;;;;;;;19.65;5.32;;;;;;;15.06;100.00;101057.28;2053735;28;20055;-80
2022/12/01 03:32:56;;;;;;;19.05;3.47;;;;;;;15.05;100.00;101069.69;2047310;28;20081;-80
2022/12/01 03:34:26;;;;;;;20.25;2.90;;;;;;;15.02;100.00;101063.50;2047425;29;20070;-80
2022/12/01 03:35:54;;;;;;;15.52;3.00;;;;;;;14.99;100.00;101056.38;2046250;29;20046;-79
2022/12/01 03:37:20;;;;;;;20.40;3.53;;;;;;;14.95;100.00;101070.56;2046043;29;20138;-79
2022/12/01 03:38:46;;;;;;;18.67;3.00;;;;;;;14.92;100.00;101067.00;2045867;29;20058;-79
2022/12/01 03:40:16;;;;;;;17.50;3.00;;;;;;;14.90;100.00;101064.31;2044951;29;20043;-81
2022/12/01 03:41:42;;;;;;;19.80;3.72;;;;;;;14.91;100.00;101065.22;2037750;29;20082;-80
2022/12/01 03:43:09;;;;;;;22.25;2.55;;;;;;;14.91;100.00;101070.53;2028176;29;20150;-80
2022/12/01 03:44:35;;;;;;;18.55;4.07;;;;;;;14.89;100.00;101072.31;2051299;28;20066;-80
2022/12/01 03:46:04;;;;;;;15.40;2.72;;;;;;;14.87;100.00;101074.97;2039936;29;20119;-80
2022/12/01 03:47:29;;;;;;;22.25;4.22;;;;;;;14.85;100.00;101071.41;2038172;29;20044;-80
2022/12/01 03:48:53;;;;;;;14.05;3.00;;;;;;;14.84;100.00;101080.25;2042391;29;20032;-79
2022/12/01 03:50:18;;;;;;;19.60;4.03;;;;;;;14.87;100.00;101068.75;2045418;28;20106;-79
2022/12/01 03:51:50;;;;;;;26.45;3.40;;;;;;;14.87;100.00;101079.38;2044783;29;20050;-80
2022/12/01 03:53:19;;;;;;;20.75;3.45;;;;;;;14.82;100.00;101086.47;2046562;29;20058;-80
2022/12/01 03:54:49;;;;;;;20.52;3.17;;;;;;;14.77;100.00;101083.78;2047429;28;20043;-79
2022/12/01 03:56:14;;;;;;;15.85;3.03;;;;;;;14.78;100.00;101085.56;2054063;28;20058;-80
2022/12/01 03:57:42;;;;;;;14.68;2.90;;;;;;;14.77;100.00;101080.25;2045470;28;20113;-80
2022/12/01 03:59:08;;;;;;;16.73;3.20;;;;;;;14.75;100.00;101089.09;2047511;28;20121;-79
2022/12/01 04:00:32;;;;;;;18.63;3.33;;;;;;;14.76;100.00;101084.69;2037303;29;20078;-80
2022/12/01 04:01:53;;;;;;;14.75;3.33;;;;;;;14.77;100.00;101092.63;2035122;29;20052;-80
2022/12/01 04:03:19;;;;;;;22.20;3.88;;;;;;;14.77;100.00;101092.63;2034794;29;20131;-79
2022/12/01 04:04:40;;;;;;;16.73;3.10;;;;;;;14.78;100.00;101098.84;2043194;29;20079;-78
2022/12/01 04:06:05;;;;;;;18.20;3.42;;;;;;;14.80;100.00;101104.16;2036204;29;20051;-79
2022/12/01 04:07:27;;;;;;;16.65;3.92;;;;;;;14.81;100.00;101100.63;2042256;29;20082;-79
2022/12/01 04:08:48;;;;;;;15.32;3.65;;;;;;;14.80;100.00;101105.06;2045310;29;20094;-79
2022/12/01 04:10:12;;;;;;;15.75;4.40;;;;;;;14.80;100.00;101106.81;2052665;28;20134;-80
2022/12/01 04:13:21;;;;;;;19.73;4.18;;;;;;;14.80;100.00;101106.81;2055691;28;20051;-79
2022/12/01 04:14:43;;;;;;;17.80;3.13;;;;;;;14.79;100.00;101113.91;2040011;29;20527;-79
2022/12/01 04:16:05;;;;;;;19.70;3.47;;;;;;;14.81;100.00;101122.78;2036584;29;20040;-79
2022/12/01 04:17:27;;;;;;;14.35;3.50;;;;;;;14.84;100.00;101117.47;2044838;28;20050;-79
2022/12/01 04:18:49;;;;;;;;;;;;;;;14.85;100.00;101119.25;2047236;29;20063;-79
2022/12/01 04:20:14;;;;;;;20.00;3.60;;;;;;;14.90;100.00;101116.63;2034320;29;20432;-79
2022/12/01 04:21:37;;;;;;;17.25;4.68;;;;;;;14.92;100.00;101118.38;2039303;29;20055;-79
2022/12/01 04:22:59;;;;;;;19.35;6.43;;;;;;;14.92;100.00;101129.03;2046720;29;20043;-79
2022/12/01 04:24:21;;;;;;;21.52;8.68;;;;;;;14.91;100.00;101121.94;2046658;29;20055;-79
2022/12/01 04:25:43;;;;;;;21.67;7.85;;;;;;;14.89;100.00;101118.41;2038587;29;20048;-79
2022/12/01 04:27:06;;;;;;;21.05;9.57;;;;;;;14.85;100.00;101121.00;2044757;28;20423;-79
2022/12/01 04:28:28;;;;;;;20.92;7.43;;;;;;;14.82;100.00;101119.25;2039752;29;20056;-79
2022/12/01 04:29:51;;;;;;;23.92;4.35;;;;;;;14.80;100.00;101121.00;2036335;29;20044;-79
2022/12/01 04:31:12;;;;;;;19.20;6.25;;;;;;;14.77;100.00;101118.31;2036302;29;20071;-79
2022/12/01 04:32:38;;;;;;;23.20;5.80;;;;;;;14.76;100.00;101116.56;2046352;28;20075;-79
2022/12/01 04:34:00;;;;;;;17.88;3.85;;;;;;;14.70;100.00;101120.06;2049230;29;20444;-79
2022/12/01 04:35:23;;;;;;;18.85;4.50;;;;;;;14.68;100.00;101120.97;2041265;29;20129;-79
2022/12/01 04:36:45;;;;;;;25.80;5.13;;;;;;;14.69;100.00;101133.38;2038719;29;20520;-79
2022/12/01 04:38:08;;;;;;;23.13;3.60;;;;;;;14.67;100.00;101133.34;2046768;29;20125;-79
2022/12/01 04:39:29;;;;;;;24.70;4.13;;;;;;;14.69;100.00;101133.38;2046378;29;20043;-79
2022/12/01 04:40:51;;;;;;;26.08;4.70;;;;;;;14.71;100.00;101136.91;2038372;29;20199;-79
2022/12/01 04:42:14;;;;;;;28.05;4.85;;;;;;;14.72;100.00;101141.34;2043295;28;20055;-79
2022/12/01 04:43:36;;;;;;;32.85;4.40;;;;;;;14.76;100.00;101143.16;2045494;29;20117;-78
2022/12/01 04:44:58;;;;;;;23.45;3.78;;;;;;;14.79;100.00;101139.59;2046254;28;20051;-79
2022/12/01 04:46:19;;;;;;;24.75;3.97;;;;;;;14.81;100.00;101146.72;2045760;29;20063;-79
2022/12/01 04:47:42;;;;;;;25.88;4.30;;;;;;;14.83;100.00;101149.38;2045283;28;20138;-78
2022/12/01 04:49:05;;;;;;;20.65;3.85;;;;;;;14.83;100.00;101146.72;2046545;29;20063;-79
2022/12/01 04:50:27;;;;;;;21.10;3.80;;;;;;;14.81;100.00;101148.47;2046868;28;20542;-80
2022/12/01 04:51:51;;;;;;;22.23;3.80;;;;;;;14.81;100.00;101143.16;2040930;29;20698;-80
2022/12/01 04:53:12;;;;;;;23.65;4.35;;;;;;;14.82;100.00;101150.25;2046532;29;20055;-80
2022/12/01 04:54:35;;;;;;;26.63;5.13;;;;;;;14.80;100.00;101152.91;2037954;29;20079;-80
2022/12/01 04:55:56;;;;;;;28.75;8.10;;;;;;;14.80;100.00;101149.34;2046352;29;20039;-79
2022/12/01 04:57:19;;;;;;;30.33;7.55;;;;;;;14.78;100.00;101157.31;2046722;28;20458;-80
2022/12/01 04:58:40;;;;;;;25.67;9.75;;;;;;;14.76;100.00;101151.13;2046411;29;20085;-79
2022/12/01 05:00:11;;;;;;;28.95;8.27;;;;;;;14.77;100.00;101159.06;2053952;28;20111;-80
2022/12/01 05:01:35;;;;;;;34.08;6.80;;;;;;;14.81;100.00;101152.03;2040335;29;20135;-80
2022/12/01 05:02:56;;;;;;;22.38;4.57;;;;;;;14.84;100.00;101154.69;2036395;29;20062;-79
2022/12/01 05:04:18;;;;;;;21.63;4.28;;;;;;;14.84;100.00;101151.13;2043456;29;20103;-79
2022/12/01 05:05:40;;;;;;;22.88;3.65;;;;;;;14.86;100.00;101162.66;2045742;29;21942;-79
2022/12/01 05:07:04;;;;;;;20.65;3.42;;;;;;;14.86;100.00;101163.56;2046067;29;20047;-79
2022/12/01 05:08:25;;;;;;;20.40;4.05;;;;;;;14.84;100.00;101154.69;2046357;29;20067;-79
2022/12/01 05:09:47;;;;;;;19.13;4.70;;;;;;;14.80;100.00;101162.63;2046133;28;20063;-79
2022/12/01 05:11:11;;;;;;;22.08;4.57;;;;;;;14.75;100.00;101160.88;2046605;29;20051;-79
2022/12/01 05:12:33;;;;;;;23.42;4.88;;;;;;;14.71;100.00;101167.03;2040782;29;20050;-79
2022/12/01 05:13:55;;;;;;;23.08;4.05;;;;;;;14.68;100.00;101152.84;2045938;29;20543;-79
2022/12/01 05:15:17;;;;;;;21.90;4.45;;;;;;;14.66;100.00;101155.50;2037788;29;20043;-79
2022/12/01 05:16:39;;;;;;;19.73;3.50;;;;;;;14.62;100.00;101147.50;2038477;29;20063;-79
2022/12/01 05:18:00;;;;;;;21.00;3.67;;;;;;;14.58;100.00;101151.00;2030594;29;20934;-79
2022/12/01 05:21:04;;;;;;;22.35;4.40;;;;;;;14.55;100.00;101148.34;2045750;29;20110;-79
2022/12/01 05:22:27;;;;;;;18.70;3.63;;;;;;;14.53;100.00;101144.78;2053789;28;20082;-79
2022/12/01 05:23:49;;;;;;;19.88;3.20;;;;;;;14.50;100.00;101140.38;2048582;28;20385;-79
2022/12/01 05:25:11;;;;;;;19.95;2.67;;;;;;;14.51;100.00;101149.19;2045663;29;20142;-79
2022/12/01 05:26:34;;;;;;;19.90;3.47;;;;;;;14.48;100.00;101147.44;2035752;29;20046;-79
2022/12/01 05:27:55;;;;;;;18.13;3.47;;;;;;;14.49;100.00;101161.59;2042045;29;20563;-79
2022/12/01 05:29:18;;;;;;;22.92;4.65;;;;;;;14.52;100.00;101157.19;2044803;28;20431;-79
2022/12/01 05:30:39;;;;;;;53.70;23.35;;;;;;;14.57;100.00;101165.19;2040792;29;20138;-79
2022/12/01 05:32:02;;;;;;;32.95;16.23;;;;;;;14.59;100.00;101159.00;2046094;29;20069;-80
2022/12/01 05:33:27;;;;;;;34.55;11.98;;;;;;;14.66;100.00;101167.88;2046057;29;20062;-79
2022/12/01 05:34:49;;;;;;;34.38;13.13;;;;;;;14.69;100.00;101165.25;2046435;29;20581;-79
2022/12/01 05:36:12;;;;;;;23.08;8.15;;;;;;;14.77;100.00;101167.97;2054175;28;20161;-79
2022/12/01 05:37:35;;;;;;;29.17;7.68;;;;;;;14.82;100.00;101171.53;2032726;29;20048;-79
2022/12/01 05:38:57;;;;;;;34.00;10.60;;;;;;;14.79;100.00;101171.50;2044156;28;20055;-79
2022/12/01 05:40:19;;;;;;;33.65;11.75;;;;;;;14.82;100.00;101174.19;2055137;28;20046;-79
2022/12/01 05:41:41;;;;;;;41.88;16.67;;;;;;;14.83;100.00;101168.88;2044531;28;20050;-79
2022/12/01 05:43:03;;;;;;;24.98;6.70;;;;;;;14.88;100.00;101176.88;2046198;29;20495;-79
2022/12/01 05:44:26;;;;;;;29.33;9.50;;;;;;;14.98;100.00;101173.34;2053983;28;20068;-79
2022/12/01 05:45:49;;;;;;;24.15;9.20;;;;;;;15.08;100.00;101177.84;2047942;28;20051;-79
2022/12/01 05:47:11;;;;;;;25.45;8.88;;;;;;;15.16;100.00;101184.94;2045971;29;20146;-79
2022/12/01 05:48:33;;;;;;;39.90;22.10;;;;;;;15.23;100.00;101187.66;2045559;29;20050;-79
2022/12/01 05:49:55;;;;;;;23.02;7.97;;;;;;;15.31;100.00;101185.88;2045540;29;20118;-79
2022/12/01 05:51:17;;;;;;;26.05;5.82;;;;;;;15.38;100.00;101185.91;2037964;29;20044;-78
2022/12/01 05:52:40;;;;;;;24.85;5.32;;;;;;;15.44;100.00;101185.91;2058656;28;20065;-79
2022/12/01 05:54:03;;;;;;;44.63;29.33;;;;;;;15.47;100.00;101182.41;2046736;29;20098;-79
2022/12/01 05:55:24;;;;;;;44.90;31.40;;;;;;;15.54;100.00;101187.78;2045652;29;20090;-79
2022/12/01 05:56:47;;;;;;;38.67;18.17;;;;;;;15.60;100.00;101197.53;2045696;29;20523;-78
2022/12/01 05:58:10;;;;;;;26.90;10.05;;;;;;;15.67;100.00;101196.66;2037301;29;20424;-79
2022/12/01 05:59:31;;;;;;;63.38;47.67;;;;;;;15.72;100.00;101188.69;2043736;29;20439;-79
2022/12/01 06:00:54;;;;;;;48.88;27.88;;;;;;;15.77;100.00;101192.22;2037449;29;20048;-79
2022/12/01 06:02:16;;;;;;;55.97;41.20;;;;;;;15.80;100.00;101198.47;2051064;28;20088;-80
2022/12/01 06:03:38;;;;;;;48.80;34.72;;;;;;;15.84;100.00;101202.88;2040684;29;20151;-79
2022/12/01 06:05:01;;;;;;;25.65;15.65;;;;;;;15.86;100.00;101201.13;2049041;28;20043;-79
2022/12/01 06:06:23;;;;;;;24.50;9.02;;;;;;;15.91;100.00;101199.34;2046644;29;20474;-79
2022/12/01 06:07:46;;;;;;;17.98;6.20;;;;;;;15.95;100.00;101206.44;2044907;28;20114;-80
2022/12/01 06:09:09;;;;;;;19.33;5.50;;;;;;;15.99;100.00;101204.69;2053993;28;20050;-79
2022/12/01 06:10:31;;;;;;;69.82;37.10;;;;;;;16.08;100.00;101203.81;2039689;29;20095;-80
2022/12/01 06:12:37;;;;;;;21.95;6.10;;;;;;;16.27;100.00;101202.91;2114420;27;20463;-77
2022/12/01 06:14:00;;;;;;;18.20;3.90;;;;;;;16.36;100.00;101208.22;2097017;28;20061;-77
2022/12/01 06:15:22;;;;;;;16.65;3.92;;;;;;;16.46;100.00;101202.00;2095074;28;20040;-77
2022/12/01 06:16:45;;;;;;;15.30;3.58;;;;;;;16.53;100.00;101208.22;2091714;28;20096;-78
2022/12/01 06:18:08;;;;;;;24.33;3.20;;;;;;;16.58;100.00;101209.97;2094669;28;20068;-77
2022/12/01 06:19:30;;;;;;;23.25;8.02;;;;;;;16.66;100.00;101213.56;2104633;28;20047;-76
2022/12/01 06:20:53;;;;;;;25.48;8.40;;;;;;;16.77;100.00;101209.97;2100856;28;20474;-77
2022/12/01 06:22:14;;;;;;;29.50;12.07;;;;;;;16.88;100.00;101202.81;2101749;28;20051;-77
2022/12/01 06:23:36;;;;;;;29.02;14.85;;;;;;;17.01;100.00;101207.22;2100970;28;20043;-79
2022/12/01 06:24:58;;;;;;;30.52;15.93;;;;;;;17.10;100.00;101213.41;2100936;28;20522;-78
2022/12/01 06:26:20;;;;;;;35.17;26.98;;;;;;;17.20;100.00;101211.56;2097741;28;20101;-77
2022/12/01 06:27:44;;;;;;;57.22;39.53;;;;;;;17.27;100.00;101213.31;2106100;28;20846;-77
2022/12/01 06:29:05;;;;;;;58.55;42.75;;;;;;;17.29;100.00;101224.00;2102403;28;20052;-79
2022/12/01 06:30:27;;;;;;;69.35;52.47;;;;;;;17.29;100.00;101222.22;2102971;28;20572;-78